Time;durP1;ratioP1;P1;durP2;ratioP2;P2;SDS_P1;SDS_P2;PMS_P1;PMS_P2;Temp;Humidity;BMP_temperature;BMP_pressure;BME280_temperature;BME280_humidity;BME280_pressure;Samples;Min_cycle;Max_cycle;Signal;HPM_P1;HPM_P2
2022/03/01 00:00:50;;;;;;;17.92;7.85;;;;;;;0.86;83.36;102305.31;5175471;28;20447;-79
2022/03/01 00:03:20;;;;;;;19.63;7.47;;;;;;;0.80;83.60;102307.72;5166137;28;20034;-79
2022/03/01 00:05:50;;;;;;;18.10;7.35;;;;;;;0.80;83.55;102296.53;5164606;28;20057;-79
2022/03/01 00:08:21;;;;;;;19.13;7.03;;;;;;;0.79;83.41;102300.81;5164054;28;20124;-79
2022/03/01 00:10:51;;;;;;;16.50;6.93;;;;;;;0.75;83.01;102293.81;5162863;28;20041;-80
2022/03/01 00:13:21;;;;;;;19.17;7.75;;;;;;;0.83;81.93;102296.63;5163943;28;20026;-79
2022/03/01 00:15:51;;;;;;;19.83;7.97;;;;;;;0.72;82.92;102303.16;5188785;28;20029;-79
2022/03/01 00:18:22;;;;;;;17.88;7.40;;;;;;;0.75;81.84;102303.25;5184628;28;20534;-79
2022/03/01 00:20:52;;;;;;;21.35;8.13;;;;;;;0.74;82.39;102293.78;5183022;28;20037;-79
2022/03/01 00:23:22;;;;;;;20.13;7.60;;;;;;;0.57;84.90;102308.66;5166394;28;20061;-79
2022/03/01 00:25:53;;;;;;;18.48;7.63;;;;;;;0.47;86.40;102310.91;5183089;28;20026;-79
2022/03/01 00:28:23;;;;;;;19.25;7.93;;;;;;;0.29;88.65;102294.88;5191867;28;20071;-79
2022/03/01 00:30:55;;;;;;;18.02;8.13;;;;;;;0.10;88.47;102306.25;5192681;28;20025;-80
2022/03/01 00:33:25;;;;;;;22.45;7.95;;;;;;;0.05;89.32;102299.19;5169167;28;20522;-78
2022/03/01 00:35:55;;;;;;;18.40;6.85;;;;;;;0.08;88.77;102299.28;5187362;28;20029;-79
2022/03/01 00:38:27;;;;;;;20.83;8.20;;;;;;;0.02;89.17;102294.81;5186735;28;20021;-79
2022/03/01 00:40:57;;;;;;;17.50;8.38;;;;;;;-0.08;89.29;102299.59;5167082;28;20448;-79
2022/03/01 00:43:27;;;;;;;17.92;8.02;;;;;;;0.07;89.34;102300.13;5186384;28;20115;-80
2022/03/01 00:45:58;;;;;;;20.15;7.97;;;;;;;-0.18;90.12;102294.09;5197189;28;20029;-80
2022/03/01 00:48:28;;;;;;;17.30;7.82;;;;;;;-0.15;90.77;102294.19;5173748;28;20022;-80
2022/03/01 00:50:59;;;;;;;18.90;8.32;;;;;;;-0.11;90.52;102301.16;5186846;28;20032;-78
2022/03/01 00:53:29;;;;;;;21.63;8.93;;;;;;;-0.07;90.64;102297.91;5186832;28;20274;-79
2022/03/01 00:55:59;;;;;;;18.85;8.15;;;;;;;-0.15;89.54;102302.78;5168591;28;20057;-79
2022/03/01 00:58:31;;;;;;;21.55;8.43;;;;;;;-0.15;91.32;102296.75;5188070;28;20022;-79
2022/03/01 01:01:01;;;;;;;20.15;8.27;;;;;;;-0.28;91.95;102292.00;5178436;28;20095;-80
2022/03/01 01:03:31;;;;;;;21.88;8.50;;;;;;;-0.35;92.07;102301.19;5166813;28;20031;-79
2022/03/01 01:06:02;;;;;;;20.27;8.77;;;;;;;-0.54;93.58;102298.78;5185225;28;20064;-80
2022/03/01 01:08:32;;;;;;;21.45;8.93;;;;;;;-0.39;92.98;102294.19;5166804;28;20109;-80
2022/03/01 01:11:02;;;;;;;22.23;9.27;;;;;;;-0.50;93.07;102298.09;5184271;28;20029;-80
2022/03/01 01:13:33;;;;;;;20.55;9.10;;;;;;;-0.64;94.04;102294.13;5179489;28;20044;-79
2022/03/01 01:16:04;;;;;;;22.10;8.68;;;;;;;-0.58;93.82;102301.19;5173460;28;20030;-79
2022/03/01 01:18:36;;;;;;;20.30;8.85;;;;;;;-0.63;94.86;102287.28;5183590;28;20092;-80
2022/03/01 01:21:06;;;;;;;21.05;8.77;;;;;;;-0.70;95.44;102291.31;5183535;28;20073;-79
2022/03/01 01:23:37;;;;;;;19.10;8.57;;;;;;;-0.73;95.39;102287.78;5169724;28;20061;-80
2022/03/01 01:26:08;;;;;;;21.67;8.85;;;;;;;-0.66;95.21;102293.22;5184232;28;20048;-80
2022/03/01 01:28:38;;;;;;;20.33;9.55;;;;;;;-0.74;95.91;102294.59;5187153;28;20034;-79
2022/03/01 01:31:09;;;;;;;21.05;8.38;;;;;;;-0.73;96.53;102292.94;5181331;28;20509;-80
2022/03/01 01:33:39;;;;;;;21.50;8.68;;;;;;;-0.83;95.83;102288.25;5166150;28;20030;-79
2022/03/01 01:36:09;;;;;;;19.90;8.68;;;;;;;-0.77;96.55;102288.47;5166759;28;20072;-80
2022/03/01 01:38:39;;;;;;;19.50;9.25;;;;;;;-0.85;96.68;102287.34;5165182;28;20113;-80
2022/03/01 01:41:10;;;;;;;21.08;8.40;;;;;;;-0.77;96.18;102266.28;5165553;28;20095;-79
2022/03/01 01:43:40;;;;;;;19.20;8.25;;;;;;;-0.81;96.28;102287.50;5164716;28;20577;-79
2022/03/01 01:46:10;;;;;;;20.52;8.82;;;;;;;-0.79;95.81;102300.38;5194191;28;20067;-78
2022/03/01 01:48:41;;;;;;;21.77;9.02;;;;;;;-0.88;96.56;102295.78;5183053;28;20112;-79
2022/03/01 01:51:11;;;;;;;20.10;8.50;;;;;;;-0.84;96.63;102304.47;5183204;28;20037;-79
2022/03/01 01:53:41;;;;;;;21.33;9.23;;;;;;;-0.81;96.67;102296.88;5182142;28;20098;-80
2022/03/01 01:56:11;;;;;;;18.23;8.48;;;;;;;-0.95;97.01;102304.06;5183236;28;20101;-79
2022/03/01 01:58:42;;;;;;;19.60;9.02;;;;;;;-0.95;97.38;102296.38;5187021;28;20211;-80
2022/03/01 02:01:13;;;;;;;19.75;8.75;;;;;;;-0.95;97.02;102282.66;5191437;28;20279;-79
2022/03/01 02:03:43;;;;;;;27.45;9.35;;;;;;;-0.98;97.71;102295.38;5166793;28;20316;-80
2022/03/01 02:06:14;;;;;;;21.55;8.48;;;;;;;-1.04;97.68;102292.59;5184563;28;20030;-80
2022/03/01 02:08:44;;;;;;;24.25;8.88;;;;;;;-0.97;97.32;102274.03;5182634;28;20044;-79
2022/03/01 02:11:14;;;;;;;20.63;8.95;;;;;;;-0.95;96.83;102287.78;5183101;28;20034;-80
2022/03/01 02:13:45;;;;;;;22.45;8.95;;;;;;;-0.98;97.32;102290.25;5164956;28;20057;-78
2022/03/01 02:16:15;;;;;;;20.13;9.40;;;;;;;-1.07;97.15;102277.09;5179254;28;20026;-79
2022/03/01 02:18:46;;;;;;;23.50;8.80;;;;;;;-1.08;96.80;102286.47;5182374;28;20036;-78
2022/03/01 02:21:16;;;;;;;17.00;8.23;;;;;;;-1.04;97.35;102283.19;5182144;28;20032;-79
2022/03/01 02:23:46;;;;;;;22.58;9.25;;;;;;;-1.10;98.21;102274.41;5183631;28;20092;-80
2022/03/01 02:26:16;;;;;;;20.90;8.82;;;;;;;-1.08;98.74;102285.59;5164206;28;20025;-79
2022/03/01 02:28:47;;;;;;;25.05;9.77;;;;;;;-1.28;98.60;102266.88;5170332;28;20091;-78
2022/03/01 02:31:17;;;;;;;20.05;8.98;;;;;;;-1.20;98.67;102269.72;5168692;28;20385;-79
2022/03/01 02:33:47;;;;;;;20.05;8.38;;;;;;;-1.26;98.96;102269.50;5169873;28;20120;-79
2022/03/01 02:36:17;;;;;;;20.77;9.40;;;;;;;-1.21;99.14;102268.84;5184744;28;20454;-79
2022/03/01 02:38:48;;;;;;;22.13;9.02;;;;;;;-1.17;98.26;102275.88;5181193;28;20033;-79
2022/03/01 02:41:18;;;;;;;25.20;9.82;;;;;;;-1.28;99.63;102269.44;5180756;28;20073;-78
2022/03/01 02:43:49;;;;;;;23.92;8.85;;;;;;;-1.25;99.25;102268.69;5162206;28;20619;-79
2022/03/01 02:46:19;;;;;;;19.67;8.77;;;;;;;-1.27;99.30;102271.19;5162604;28;20061;-79
2022/03/01 02:48:49;;;;;;;23.80;9.00;;;;;;;-1.36;99.35;102262.25;5162685;28;20033;-79
2022/03/01 02:51:20;;;;;;;22.95;9.05;;;;;;;-1.28;99.51;102264.31;5180000;28;20072;-79
2022/03/01 02:53:50;;;;;;;21.42;8.63;;;;;;;-1.33;99.80;102268.38;5179411;28;20029;-78
2022/03/01 02:56:21;;;;;;;19.60;8.48;;;;;;;-1.33;100.00;102273.53;5179377;28;20029;-78
2022/03/01 02:58:55;;;;;;;24.13;8.88;;;;;;;-1.36;100.00;102267.38;5186413;28;20029;-79
2022/03/01 03:01:27;;;;;;;20.83;8.77;;;;;;;-1.27;99.67;102270.31;5166954;28;20599;-79
2022/03/01 03:03:58;;;;;;;22.48;8.63;;;;;;;-1.33;99.16;102272.63;5183612;28;20026;-79
2022/03/01 03:06:29;;;;;;;20.20;8.70;;;;;;;-1.32;99.50;102276.94;5188023;28;20034;-79
2022/03/01 03:08:59;;;;;;;19.95;8.57;;;;;;;-1.20;99.07;102272.28;5183882;28;20030;-79
2022/03/01 03:11:29;;;;;;;22.45;9.10;;;;;;;-1.26;99.02;102275.50;5177050;28;20022;-79
2022/03/01 03:13:59;;;;;;;23.02;9.05;;;;;;;-1.20;99.38;102270.59;5165229;28;20021;-80
2022/03/01 03:16:30;;;;;;;20.70;9.20;;;;;;;-1.27;98.55;102268.63;5182599;28;20036;-79
2022/03/01 03:19:00;;;;;;;23.30;8.93;;;;;;;-1.21;98.13;102262.84;5182420;28;20026;-80
2022/03/01 03:21:31;;;;;;;20.95;8.57;;;;;;;-1.28;99.20;102271.09;5164391;28;20052;-80
2022/03/01 03:24:01;;;;;;;23.77;8.35;;;;;;;-1.27;98.99;102262.63;5165198;28;20033;-80
2022/03/01 03:26:31;;;;;;;23.30;9.52;;;;;;;-1.31;98.79;102265.88;5159843;28;20021;-79
2022/03/01 03:29:03;;;;;;;25.58;9.52;;;;;;;-1.30;98.92;102259.91;5169127;28;20037;-79
2022/03/01 03:31:34;;;;;;;24.63;9.40;;;;;;;-1.29;98.91;102257.44;5173795;28;20037;-80
2022/03/01 03:34:07;;;;;;;24.55;9.25;;;;;;;-1.32;99.62;102259.00;5189397;28;20072;-79
2022/03/01 03:36:40;;;;;;;20.33;8.93;;;;;;;-1.25;98.71;102261.84;5185232;28;20014;-79
2022/03/01 03:39:12;;;;;;;21.23;8.82;;;;;;;-1.37;99.24;102260.50;5181076;28;20022;-79
2022/03/01 03:41:42;;;;;;;21.10;9.18;;;;;;;-1.47;99.14;102255.81;5162025;28;20037;-79
2022/03/01 03:44:12;;;;;;;21.45;9.05;;;;;;;-1.43;99.55;102256.00;5163980;28;20036;-78
2022/03/01 03:46:43;;;;;;;21.02;8.07;;;;;;;-1.44;100.00;102253.41;5164424;28;20022;-80
2022/03/01 03:49:13;;;;;;;21.10;8.45;;;;;;;-1.42;100.00;102249.22;5195105;23;20036;-76
2022/03/01 03:51:43;;;;;;;23.23;9.23;;;;;;;-1.45;100.00;102256.75;5181378;28;20249;-77
2022/03/01 03:54:14;;;;;;;21.30;8.70;;;;;;;-1.50;100.00;102265.97;5177048;28;20022;-77
2022/03/01 03:56:44;;;;;;;20.23;8.25;;;;;;;-1.49;100.00;102270.28;5156348;28;20778;-77
2022/03/01 03:59:14;;;;;;;21.42;8.95;;;;;;;-1.52;100.00;102257.34;5160978;28;20590;-77
2022/03/01 04:01:45;;;;;;;19.27;8.90;;;;;;;-1.61;100.00;102262.13;5179033;28;20034;-77
2022/03/01 04:04:15;;;;;;;20.00;8.73;;;;;;;-1.53;100.00;102253.94;5176794;28;20049;-77
2022/03/01 04:06:45;;;;;;;25.95;9.35;;;;;;;-1.47;100.00;102249.03;5175630;28;20030;-77
2022/03/01 04:09:16;;;;;;;22.70;8.90;;;;;;;-1.53;100.00;102253.03;5172407;28;20345;-77
2022/03/01 04:11:46;;;;;;;24.08;8.63;;;;;;;-1.58;100.00;102245.16;5157302;28;20034;-77
2022/03/01 04:14:17;;;;;;;22.33;8.82;;;;;;;-1.46;100.00;102248.22;5170836;28;20026;-77
2022/03/01 04:16:47;;;;;;;21.17;9.18;;;;;;;-1.61;99.65;102249.31;5173803;28;20018;-77
2022/03/01 04:19:17;;;;;;;21.55;8.70;;;;;;;-1.67;100.00;102246.47;5175182;28;20038;-77
2022/03/01 04:21:48;;;;;;;21.77;8.63;;;;;;;-1.58;100.00;102234.03;5157389;28;20026;-77
2022/03/01 04:24:18;;;;;;;22.38;9.07;;;;;;;-1.69;99.97;102256.69;5174957;28;20186;-77
2022/03/01 04:26:49;;;;;;;19.45;8.38;;;;;;;-1.57;99.97;102239.22;5172813;28;20037;-77
2022/03/01 04:29:19;;;;;;;22.13;9.25;;;;;;;-1.62;99.49;102250.97;5174820;28;20148;-78
2022/03/01 04:31:50;;;;;;;21.70;8.77;;;;;;;-1.76;100.00;102251.25;5178475;28;20029;-77
2022/03/01 04:34:20;;;;;;;24.75;9.15;;;;;;;-1.53;100.00;102247.91;5162386;28;20036;-77
2022/03/01 04:36:50;;;;;;;20.17;8.82;;;;;;;-1.75;100.00;102255.56;5179637;28;20101;-77
2022/03/01 04:39:20;;;;;;;22.02;9.10;;;;;;;-1.75;100.00;102243.59;5158626;28;20057;-77
2022/03/01 04:41:51;;;;;;;21.83;8.50;;;;;;;-1.67;100.00;102252.50;5156471;28;20033;-77
2022/03/01 04:44:22;;;;;;;25.80;9.50;;;;;;;-1.67;100.00;102261.84;5157000;28;20338;-77
2022/03/01 04:46:53;;;;;;;26.52;9.02;;;;;;;-1.62;100.00;102244.97;5156144;28;20038;-77
2022/03/01 04:49:23;;;;;;;20.88;9.05;;;;;;;-1.63;100.00;102253.47;5175468;28;20026;-77
2022/03/01 04:51:54;;;;;;;22.00;8.77;;;;;;;-1.65;100.00;102253.44;5156267;28;20036;-77
2022/03/01 04:54:24;;;;;;;25.27;9.05;;;;;;;-1.74;100.00;102257.31;5157035;28;21061;-77
2022/03/01 04:56:54;;;;;;;25.52;9.20;;;;;;;-1.74;100.00;102258.16;5155745;28;20451;-77
2022/03/01 04:59:25;;;;;;;18.85;8.60;;;;;;;-1.83;100.00;102250.94;5180644;28;20042;-77
2022/03/01 05:01:55;;;;;;;27.45;8.70;;;;;;;-1.77;100.00;102257.19;5179267;28;20029;-77
2022/03/01 05:04:26;;;;;;;23.80;9.00;;;;;;;-1.74;100.00;102247.06;5180184;28;20049;-77
2022/03/01 05:06:56;;;;;;;20.48;8.52;;;;;;;-1.84;100.00;102255.19;5158283;28;20544;-77
2022/03/01 05:09:26;;;;;;;21.00;9.02;;;;;;;-1.88;100.00;102255.88;5173991;28;20029;-77
2022/03/01 05:11:56;;;;;;;22.60;9.05;;;;;;;-1.88;100.00;102251.59;5165947;28;20141;-77
2022/03/01 05:14:27;;;;;;;23.75;9.50;;;;;;;-1.88;100.00;102251.59;5172524;28;20492;-77
2022/03/01 05:16:57;;;;;;;21.70;8.60;;;;;;;-1.95;100.00;102241.06;5154163;28;20026;-77
2022/03/01 05:19:29;;;;;;;20.55;8.10;;;;;;;-1.78;100.00;102247.75;5159926;28;20060;-77
2022/03/01 05:21:59;;;;;;;19.92;9.05;;;;;;;-1.83;100.00;102249.25;5174471;28;20026;-77
2022/03/01 05:24:30;;;;;;;19.13;8.80;;;;;;;-1.78;100.00;102245.19;5178145;28;20626;-77
2022/03/01 05:27:00;;;;;;;20.27;8.32;;;;;;;-1.90;100.00;102246.34;5173969;28;20037;-77
2022/03/01 05:29:30;;;;;;;19.27;8.55;;;;;;;-1.80;100.00;102242.56;5183353;28;20029;-77
2022/03/01 05:32:01;;;;;;;20.35;8.57;;;;;;;-1.81;100.00;102240.81;5180616;28;20116;-77
2022/03/01 05:34:31;;;;;;;20.40;9.07;;;;;;;-1.83;100.00;102246.69;5163673;28;20722;-77
2022/03/01 05:37:02;;;;;;;24.42;9.70;;;;;;;-1.88;100.00;102247.28;5178311;28;20030;-77
2022/03/01 05:39:32;;;;;;;21.10;8.55;;;;;;;-1.94;100.00;102247.94;5171593;28;20084;-77
2022/03/01 05:42:03;;;;;;;19.08;8.43;;;;;;;-1.81;100.00;102240.81;5174356;28;20030;-77
2022/03/01 05:44:33;;;;;;;20.15;9.07;;;;;;;-1.90;100.00;102249.81;5161954;28;20623;-77
2022/03/01 05:47:03;;;;;;;19.83;9.05;;;;;;;-1.88;100.00;102253.31;5162795;28;20033;-77
2022/03/01 05:49:34;;;;;;;22.92;9.18;;;;;;;-1.80;100.00;102252.81;5153792;28;20045;-77
2022/03/01 05:52:05;;;;;;;22.88;8.98;;;;;;;-1.91;99.71;102248.06;5174592;28;20189;-77
2022/03/01 05:54:35;;;;;;;20.98;8.30;;;;;;;-2.00;100.00;102252.78;5167195;28;20113;-77
2022/03/01 05:57:05;;;;;;;22.90;8.60;;;;;;;-1.95;100.00;102251.31;5174497;28;20109;-77
2022/03/01 05:59:35;;;;;;;18.88;8.32;;;;;;;-1.96;100.00;102254.66;5177338;28;20487;-77
2022/03/01 06:02:06;;;;;;;24.05;8.27;;;;;;;-2.02;100.00;102259.53;5160692;28;20026;-77
2022/03/01 06:04:37;;;;;;;20.63;8.15;;;;;;;-2.04;100.00;102260.28;5175576;28;20033;-77
2022/03/01 06:07:07;;;;;;;25.40;8.77;;;;;;;-2.23;100.00;102263.78;5170904;28;20034;-77
2022/03/01 06:09:37;;;;;;;21.30;8.35;;;;;;;-2.11;100.00;102261.75;5178849;28;20087;-77
2022/03/01 06:12:08;;;;;;;19.33;8.10;;;;;;;-2.21;100.00;102269.84;5177779;28;20108;-76
2022/03/01 06:14:38;;;;;;;21.02;9.05;;;;;;;-2.14;100.00;102259.03;5177186;28;20798;-77
2022/03/01 06:17:09;;;;;;;23.38;9.07;;;;;;;-2.03;100.00;102268.03;5169718;28;20058;-77
2022/03/01 06:19:39;;;;;;;22.40;8.82;;;;;;;-1.91;100.00;102273.69;5176170;28;20029;-77
2022/03/01 06:22:10;;;;;;;21.85;8.70;;;;;;;-1.94;100.00;102276.13;5179492;28;20044;-77
2022/03/01 06:24:41;;;;;;;21.77;9.05;;;;;;;-1.99;100.00;102272.47;5179083;28;20145;-77
2022/03/01 06:27:12;;;;;;;22.63;9.05;;;;;;;-1.90;100.00;102275.44;5176425;28;20049;-77
2022/03/01 06:29:42;;;;;;;20.73;8.82;;;;;;;-1.77;100.00;102277.69;5166799;28;20022;-77
2022/03/01 06:32:12;;;;;;;21.42;8.43;;;;;;;-1.68;100.00;102278.94;5164062;28;20053;-77
2022/03/01 06:34:43;;;;;;;23.65;9.18;;;;;;;-1.73;100.00;102279.56;5175542;28;20518;-77
2022/03/01 06:37:13;;;;;;;19.35;8.73;;;;;;;-1.69;100.00;102282.31;5155956;28;20057;-78
2022/03/01 06:39:44;;;;;;;17.55;8.23;;;;;;;-1.67;100.00;102284.91;5177063;28;20055;-77
2022/03/01 06:42:15;;;;;;;19.80;8.85;;;;;;;-1.50;100.00;102283.91;5166942;28;20030;-77
2022/03/01 06:44:45;;;;;;;22.27;8.02;;;;;;;-1.50;100.00;102284.81;5150525;28;20113;-77
2022/03/01 06:47:15;;;;;;;19.50;8.60;;;;;;;-1.34;100.00;102305.09;5166589;28;20042;-77
2022/03/01 06:49:46;;;;;;;20.00;8.57;;;;;;;-1.17;99.97;102295.50;5172692;28;20040;-77
2022/03/01 06:52:16;;;;;;;21.55;9.02;;;;;;;-1.16;99.64;102295.56;5162405;28;20096;-76
2022/03/01 06:54:46;;;;;;;22.60;9.00;;;;;;;-1.12;99.62;102289.72;5173299;28;20030;-77
2022/03/01 06:57:17;;;;;;;17.45;8.10;;;;;;;-1.03;99.02;102287.50;5174846;28;20077;-77
2022/03/01 06:59:47;;;;;;;21.90;8.65;;;;;;;-1.00;98.24;102284.19;5181822;28;20030;-78
2022/03/01 07:02:17;;;;;;;22.00;8.02;;;;;;;-0.92;98.32;102282.81;5180061;28;20037;-78
2022/03/01 07:04:48;;;;;;;20.95;8.32;;;;;;;-0.86;98.10;102280.44;5166754;28;20034;-77
2022/03/01 07:07:18;;;;;;;19.90;8.52;;;;;;;-0.92;98.16;102281.09;5176968;28;20030;-77
2022/03/01 07:09:49;;;;;;;19.58;8.20;;;;;;;-0.84;97.81;102282.28;5157489;28;20026;-77
2022/03/01 07:12:19;;;;;;;20.15;8.45;;;;;;;-0.71;99.07;102283.59;5174924;28;20500;-77
2022/03/01 07:14:50;;;;;;;16.58;7.88;;;;;;;-0.75;99.00;102286.88;5156935;28;20026;-77
2022/03/01 07:17:20;;;;;;;18.55;8.57;;;;;;;-0.66;97.77;102282.06;5156274;28;20495;-77
2022/03/01 07:19:51;;;;;;;20.27;8.43;;;;;;;-0.58;97.84;102285.78;5170235;28;20033;-77
2022/03/01 07:22:21;;;;;;;23.02;9.35;;;;;;;-0.52;97.16;102288.56;5176377;28;20241;-77
2022/03/01 07:24:51;;;;;;;21.75;8.35;;;;;;;-0.33;96.47;102288.41;5157041;28;20036;-77
2022/03/01 07:27:21;;;;;;;18.05;7.97;;;;;;;-0.23;97.10;102285.34;5175827;28;20033;-77
2022/03/01 07:29:52;;;;;;;19.25;8.70;;;;;;;-0.08;96.53;102285.88;5165875;28;20040;-77
2022/03/01 07:32:23;;;;;;;19.13;8.13;;;;;;;0.17;95.38;102287.63;5177840;28;20036;-77
2022/03/01 07:34:53;;;;;;;17.58;8.10;;;;;;;2.45;87.43;102271.13;5167364;28;20022;-78
2022/03/01 07:37:23;;;;;;;17.23;8.13;;;;;;;4.27;77.16;102264.63;5177649;28;20018;-78
2022/03/01 07:39:55;;;;;;;16.42;7.38;;;;;;;5.08;72.76;102249.47;5158186;28;20446;-78
2022/03/01 07:42:26;;;;;;;16.92;7.78;;;;;;;6.02;70.43;102260.97;5165402;28;20662;-78
2022/03/01 07:44:56;;;;;;;17.33;7.90;;;;;;;6.59;67.25;102245.91;5169535;28;20030;-77
2022/03/01 07:47:26;;;;;;;16.57;8.10;;;;;;;7.53;64.76;102252.50;5175750;28;20049;-77
2022/03/01 07:49:57;;;;;;;14.18;7.35;;;;;;;7.55;64.61;102249.91;5158105;28;20701;-78
2022/03/01 07:52:28;;;;;;;16.38;8.00;;;;;;;8.12;63.41;102235.28;5173010;28;20030;-78
2022/03/01 07:54:58;;;;;;;16.13;8.13;;;;;;;7.00;64.29;102236.66;5175692;28;20036;-77
2022/03/01 07:57:29;;;;;;;14.18;7.88;;;;;;;7.54;65.21;102236.00;5173764;28;20552;-77
2022/03/01 07:59:59;;;;;;;15.55;8.10;;;;;;;7.41;64.10;102235.97;5179580;28;20030;-77
2022/03/01 08:02:29;;;;;;;15.02;7.70;;;;;;;7.13;63.90;102241.06;5175783;28;20029;-78
2022/03/01 08:05:01;;;;;;;15.38;7.90;;;;;;;7.91;64.92;102229.19;5186727;28;20037;-77
2022/03/01 08:07:33;;;;;;;14.02;7.38;;;;;;;7.82;62.49;102237.84;5162296;28;20076;-78
2022/03/01 08:10:03;;;;;;;15.93;7.82;;;;;;;8.33;60.75;102240.53;5176066;28;20117;-77
2022/03/01 08:12:34;;;;;;;14.18;7.70;;;;;;;7.45;62.54;102233.41;5179077;28;20060;-77
2022/03/01 08:15:05;;;;;;;15.13;7.70;;;;;;;7.33;63.59;102235.94;5159026;28;20503;-77
2022/03/01 08:17:35;;;;;;;14.48;7.60;;;;;;;7.26;62.88;102240.25;5171479;28;20092;-78
2022/03/01 08:20:07;;;;;;;16.10;7.85;;;;;;;9.18;61.59;102221.25;5162401;28;20030;-78
2022/03/01 08:22:37;;;;;;;14.63;7.80;;;;;;;8.64;60.29;102230.94;5161491;28;20053;-77
2022/03/01 08:25:08;;;;;;;14.88;7.55;;;;;;;8.59;62.23;102230.09;5158680;28;20200;-77
2022/03/01 08:27:38;;;;;;;14.23;8.02;;;;;;;9.22;60.53;102222.97;5175679;28;20018;-78
2022/03/01 08:30:09;;;;;;;15.00;7.88;;;;;;;9.15;60.30;102213.47;5184587;28;20399;-77
2022/03/01 08:32:40;;;;;;;16.95;7.90;;;;;;;7.99;61.81;102225.72;5162868;28;20030;-77
2022/03/01 08:35:10;;;;;;;16.92;8.02;;;;;;;8.75;61.07;102219.63;5187285;28;20037;-78
2022/03/01 08:37:41;;;;;;;16.10;7.65;;;;;;;8.78;61.38;102224.88;5161211;28;20026;-78
2022/03/01 08:40:13;;;;;;;15.50;8.00;;;;;;;9.90;59.69;102223.50;5158253;28;20034;-78
2022/03/01 08:42:44;;;;;;;13.82;7.60;;;;;;;9.61;59.88;102215.84;5158516;28;20032;-78
2022/03/01 08:45:14;;;;;;;15.32;7.57;;;;;;;8.91;59.87;102210.91;5176068;28;20026;-78
2022/03/01 08:47:45;;;;;;;14.93;7.90;;;;;;;8.36;60.44;102208.41;5158016;28;20029;-78
2022/03/01 08:50:15;;;;;;;14.82;7.90;;;;;;;8.65;60.86;102207.50;5157077;28;20026;-78
2022/03/01 08:52:45;;;;;;;14.95;7.70;;;;;;;7.91;61.78;102213.56;5159105;28;20522;-78
2022/03/01 08:55:16;;;;;;;13.23;7.88;;;;;;;8.29;61.74;102210.16;5172658;28;20030;-77
2022/03/01 08:57:46;;;;;;;16.13;7.50;;;;;;;9.11;60.68;102198.69;5178911;28;20026;-77
2022/03/01 09:00:17;;;;;;;17.67;8.25;;;;;;;8.59;60.73;102212.72;5169331;28;20038;-77
2022/03/01 09:02:48;;;;;;;14.43;7.95;;;;;;;9.39;60.69;102208.13;5157311;28;20022;-78
2022/03/01 09:05:18;;;;;;;12.95;7.70;;;;;;;9.84;58.98;102210.50;5180765;28;20040;-78
2022/03/01 09:07:48;;;;;;;13.52;7.50;;;;;;;8.92;60.15;102220.47;5175995;28;20033;-78
2022/03/01 09:10:21;;;;;;;17.48;8.02;;;;;;;9.54;59.35;102216.75;5156952;28;20038;-78
2022/03/01 09:12:53;;;;;;;14.15;7.28;;;;;;;8.85;61.32;102215.25;5176489;28;20084;-77
2022/03/01 09:15:30;;;;;;;15.85;7.70;;;;;;;8.93;61.22;102209.16;5172260;28;20038;-78
2022/03/01 09:18:05;;;;;;;16.90;8.05;;;;;;;7.01;64.60;102230.59;5157102;28;20109;-76
2022/03/01 09:20:36;;;;;;;18.70;8.70;;;;;;;6.92;66.14;102230.56;5171352;28;20026;-78
2022/03/01 09:23:06;;;;;;;15.95;8.00;;;;;;;6.30;69.10;102230.13;5174335;28;20040;-77
2022/03/01 09:25:36;;;;;;;15.75;8.05;;;;;;;6.06;69.87;102229.03;5173868;28;20270;-77
2022/03/01 09:28:07;;;;;;;17.98;8.85;;;;;;;6.11;70.88;102230.78;5172727;28;20028;-77
2022/03/01 09:30:37;;;;;;;16.80;8.57;;;;;;;5.78;71.23;102234.78;5175650;28;20038;-77
2022/03/01 09:33:07;;;;;;;16.73;8.13;;;;;;;5.92;69.70;102225.44;5154261;28;20483;-77
2022/03/01 09:35:38;;;;;;;16.70;8.02;;;;;;;5.91;69.56;102223.69;5175051;28;20022;-77
2022/03/01 09:38:08;;;;;;;15.32;7.97;;;;;;;5.62;67.97;102230.28;5174830;28;20045;-77
2022/03/01 09:40:39;;;;;;;15.15;7.93;;;;;;;6.07;70.08;102233.38;5150968;28;20022;-77
2022/03/01 09:43:10;;;;;;;15.85;8.27;;;;;;;5.74;70.10;102230.41;5152769;28;20022;-77
2022/03/01 09:45:41;;;;;;;18.00;8.38;;;;;;;5.72;71.03;102224.34;5170481;28;20018;-77
2022/03/01 09:48:11;;;;;;;16.70;7.63;;;;;;;5.83;69.25;102217.56;5159670;28;20033;-77
2022/03/01 09:50:45;;;;;;;17.40;8.07;;;;;;;5.64;69.69;102213.88;5193000;22;20483;-78
2022/03/01 09:53:15;;;;;;;16.50;8.15;;;;;;;5.73;70.35;102208.78;5161965;28;20033;-82
2022/03/01 09:55:46;;;;;;;17.50;8.50;;;;;;;5.77;71.16;102194.13;5160737;28;20026;-79
2022/03/01 09:58:16;;;;;;;16.73;7.78;;;;;;;5.73;71.51;102197.53;5178211;28;20408;-81
2022/03/01 10:00:47;;;;;;;16.63;8.23;;;;;;;5.55;71.13;102207.72;5186071;28;20514;-79
2022/03/01 10:03:19;;;;;;;18.75;8.32;;;;;;;5.60;73.47;102203.47;5162067;28;20037;-78
2022/03/01 10:05:50;;;;;;;14.95;7.72;;;;;;;5.67;72.08;102202.66;5184606;28;20093;-81
2022/03/01 10:08:21;;;;;;;17.85;8.27;;;;;;;5.47;71.17;102202.47;5178676;28;20090;-80
2022/03/01 10:10:53;;;;;;;17.58;7.85;;;;;;;5.74;72.80;102199.28;5158425;28;20173;-79
2022/03/01 10:13:29;;;;;;;15.90;8.10;;;;;;;5.78;72.18;102195.84;5173747;28;20042;-79
2022/03/01 10:16:02;;;;;;;;;;;;;;;6.02;73.99;102196.09;5175893;28;20064;-78
2022/03/01 10:18:36;;;;;;;17.15;7.90;;;;;;;6.25;72.45;102194.59;5158311;28;19917;-81
2022/03/01 10:21:09;;;;;;;15.07;7.20;;;;;;;5.94;71.73;102190.00;5168794;28;20396;-79
2022/03/01 10:23:46;;;;;;;16.40;8.27;;;;;;;6.13;72.62;102187.56;5160518;28;20037;-80
2022/03/01 10:26:21;;;;;;;16.95;8.35;;;;;;;6.34;71.39;102185.13;5162760;28;20034;-82
2022/03/01 10:28:56;;;;;;;14.90;7.28;;;;;;;6.32;70.73;102183.38;5159987;28;20068;-79
2022/03/01 10:31:30;;;;;;;18.33;7.25;;;;;;;6.47;70.02;102175.69;5182174;28;20026;-80
2022/03/01 10:34:11;;;;;;;16.75;7.90;;;;;;;6.54;68.87;102188.75;5163824;28;20026;-80
2022/03/01 10:36:44;;;;;;;15.15;7.60;;;;;;;6.38;68.17;102175.63;5158482;28;20157;-82
2022/03/01 10:39:35;;;;;;;15.60;7.40;;;;;;;6.41;69.64;102173.94;5165440;28;20037;-80
2022/03/01 10:42:05;;;;;;;15.00;7.03;;;;;;;6.54;68.56;102180.94;5153788;28;20042;-82
2022/03/01 10:44:36;;;;;;;17.02;7.10;;;;;;;6.41;66.77;102186.06;5165656;28;20275;-81
2022/03/01 10:47:07;;;;;;;16.48;7.63;;;;;;;6.62;68.81;102181.84;5157047;28;20064;-79
2022/03/01 10:49:37;;;;;;;17.40;7.57;;;;;;;6.82;68.75;102180.25;5152657;28;20031;-80
2022/03/01 10:52:09;;;;;;;13.82;6.97;;;;;;;6.74;65.81;102179.34;5157279;28;20113;-82
2022/03/01 10:54:44;;;;;;;14.60;7.30;;;;;;;6.84;65.97;102169.84;5158837;28;20048;-79
2022/03/01 10:57:22;;;;;;;16.90;7.10;;;;;;;6.58;64.65;102171.44;5155715;28;20015;-81
2022/03/01 10:59:53;;;;;;;15.23;7.70;;;;;;;6.98;67.69;102182.06;5165298;28;20036;-80
2022/03/01 11:02:23;;;;;;;14.52;6.75;;;;;;;6.98;66.16;102170.78;5159801;28;20029;-80
2022/03/01 11:04:54;;;;;;;13.93;7.18;;;;;;;6.67;65.85;102168.91;5165101;28;20026;-81
2022/03/01 11:07:29;;;;;;;14.10;7.10;;;;;;;6.86;66.25;102170.72;5159248;28;20040;-82
2022/03/01 11:10:01;;;;;;;14.85;7.40;;;;;;;6.92;65.34;102161.22;5172912;28;20030;-80
2022/03/01 11:12:33;;;;;;;14.10;6.65;;;;;;;6.99;63.15;102162.13;5156474;28;20029;-80
2022/03/01 11:15:49;;;;;;;13.45;7.10;;;;;;;7.07;63.27;102155.25;5153015;28;20030;-80
2022/03/01 11:18:43;;;;;;;13.40;7.13;;;;;;;7.07;62.45;102158.69;5121573;28;20038;-81
2022/03/01 11:21:15;;;;;;;14.65;6.90;;;;;;;7.24;60.75;102158.78;5169774;28;20030;-80
2022/03/01 11:23:46;;;;;;;14.07;7.15;;;;;;;7.11;61.66;102151.78;5175868;28;20032;-79
2022/03/01 11:26:16;;;;;;;15.80;6.53;;;;;;;7.26;59.75;102155.31;5162192;28;20109;-80
2022/03/01 11:28:52;;;;;;;15.35;6.82;;;;;;;7.37;60.68;102143.22;5177731;28;20037;-81
2022/03/01 11:31:28;;;;;;;15.18;6.95;;;;;;;7.67;61.70;102140.66;5162750;28;20025;-80
2022/03/01 11:34:07;;;;;;;14.10;7.18;;;;;;;7.74;59.73;102137.19;5178852;28;20053;-80
2022/03/01 11:36:38;;;;;;;12.40;6.35;;;;;;;7.44;59.48;102132.81;5167474;28;20034;-79